Waynesboro, Virginia
Current Conditions -  °F | °C
As of 5:15 AM on Thursday 18 Dec 2014 (Local Time) from KW13 Reporting Station
Clear Clear  
Wind Chill: 22°   Ceiling: Unl
Heat Index: 29°   Visibility: 10mi
Dew Point: 20°   Wind: 7mph
Humidity: 70%   Direction: 280°W
Pressure: 30.09"   Gusts: NA
Location:  38.07°N, 78.89°W
Report Text: KW13 181015Z AUTO 28006KT 10SM CLR M02/M06 A3009 RMK AO1 T10171065
Loading
Personal Weather Stations






























Interactive Weather Map New forecast layout! Learn more

10-Day Weather Forecast

Advertisements
Track Severe Weather on mobile